Time;durP1;ratioP1;P1;durP2;ratioP2;P2;SDS_P1;SDS_P2;PMS_P1;PMS_P2;Temp;Humidity;BMP_temperature;BMP_pressure;BME280_temperature;BME280_humidity;BME280_pressure;Samples;Min_cycle;Max_cycle;Signal;HPM_P1;HPM_P2
2023/02/01 00:00:15;;;;;;;1.33;0.50;;;;;;;;;;4164986;28;20053;-46
2023/02/01 00:02:16;;;;;;;1.05;0.30;;;;;;;;;;4165017;28;20068;-43
2023/02/01 00:04:17;;;;;;;0.57;0.30;;;;;;;;;;4165064;28;20088;-44
2023/02/01 00:06:18;;;;;;;0.40;0.30;;;;;;;;;;4115360;28;20450;-46
2023/02/01 00:08:20;;;;;;;1.58;0.40;;;;;;;;;;4164107;28;20053;-47
2023/02/01 00:10:21;;;;;;;1.17;0.30;;;;;;;;;;4164869;28;20049;-44
2023/02/01 00:12:22;;;;;;;1.55;0.40;;;;;;;;;;4164935;28;20566;-45
2023/02/01 00:14:23;;;;;;;0.73;0.32;;;;;;;;;;4164879;28;20057;-43
2023/02/01 00:16:27;;;;;;;0.32;0.20;;;;;;;;;;4164762;28;20103;-44
2023/02/01 00:18:28;;;;;;;0.57;0.20;;;;;;;;;;4147492;28;20081;-46
2023/02/01 00:20:29;;;;;;;1.15;0.30;;;;;;;;;;4163757;28;20053;-43
2023/02/01 00:22:31;;;;;;;0.77;0.30;;;;;;;;;;4165040;28;20057;-44
2023/02/01 00:24:32;;;;;;;0.90;0.40;;;;;;;;;;4156347;28;20489;-45
2023/02/01 00:26:37;;;;;;;2.13;0.50;;;;;;;;;;4164674;28;20064;-44
2023/02/01 00:28:38;;;;;;;1.05;0.40;;;;;;;;;;4147334;28;20054;-47
2023/02/01 00:30:39;;;;;;;0.80;0.40;;;;;;;;;;4130895;28;20541;-45
2023/02/01 00:32:41;;;;;;;1.35;0.50;;;;;;;;;;4147230;28;20456;-44
2023/02/01 00:34:42;;;;;;;1.08;0.50;;;;;;;;;;4146809;28;20108;-44
2023/02/01 00:36:44;;;;;;;0.75;0.40;;;;;;;;;;4164498;28;20566;-45
2023/02/01 00:38:46;;;;;;;1.05;0.50;;;;;;;;;;4164687;28;20488;-44
2023/02/01 00:40:48;;;;;;;1.10;0.40;;;;;;;;;;4164159;28;20084;-44
2023/02/01 00:42:49;;;;;;;1.23;0.45;;;;;;;;;;4164343;28;20053;-46
2023/02/01 00:44:50;;;;;;;0.40;0.20;;;;;;;;;;4164608;28;20084;-45
2023/02/01 00:46:51;;;;;;;0.85;0.40;;;;;;;;;;4164683;28;20069;-45
2023/02/01 00:48:53;;;;;;;1.27;0.50;;;;;;;;;;4164377;28;20056;-43
2023/02/01 00:50:59;;;;;;;2.15;0.50;;;;;;;;;;4162750;28;20061;-45
2023/02/01 00:53:00;;;;;;;1.13;0.40;;;;;;;;;;4160499;28;20049;-46
2023/02/01 00:55:01;;;;;;;0.55;0.30;;;;;;;;;;4163287;28;20484;-45
2023/02/01 00:57:02;;;;;;;1.30;0.43;;;;;;;;;;4168375;28;20049;-48
2023/02/01 00:59:04;;;;;;;1.00;0.65;;;;;;;;;;4129933;28;20058;-46
2023/02/01 01:01:05;;;;;;;1.13;0.30;;;;;;;;;;4146539;28;20045;-46
2023/02/01 01:03:17;;;;;;;0.65;0.25;;;;;;;;;;4146673;28;20108;-46
2023/02/01 01:05:18;;;;;;;1.98;0.68;;;;;;;;;;4146698;28;20058;-46
2023/02/01 01:07:20;;;;;;;0.50;0.30;;;;;;;;;;4146202;28;20050;-45
2023/02/01 01:09:21;;;;;;;1.20;0.43;;;;;;;;;;4141490;28;20525;-46
2023/02/01 01:11:24;;;;;;;0.50;0.30;;;;;;;;;;4162453;28;20057;-46
2023/02/01 01:13:26;;;;;;;2.40;0.60;;;;;;;;;;4146445;28;20092;-46
2023/02/01 01:15:27;;;;;;;0.77;0.30;;;;;;;;;;4146518;28;20058;-52
2023/02/01 01:17:31;;;;;;;0.65;0.32;;;;;;;;;;4164002;28;20053;-46
2023/02/01 01:19:32;;;;;;;1.70;0.50;;;;;;;;;;4163756;28;20057;-44
2023/02/01 01:21:33;;;;;;;0.82;0.40;;;;;;;;;;4164064;28;20444;-48
2023/02/01 01:23:35;;;;;;;0.82;0.30;;;;;;;;;;4146458;28;20055;-47
2023/02/01 01:25:38;;;;;;;1.20;0.43;;;;;;;;;;4163263;28;20412;-45
2023/02/01 01:27:40;;;;;;;0.90;0.50;;;;;;;;;;4163762;28;20404;-48
2023/02/01 01:29:41;;;;;;;1.70;0.52;;;;;;;;;;4146431;28;20061;-47
2023/02/01 01:31:43;;;;;;;0.60;0.30;;;;;;;;;;4164003;28;20057;-45
2023/02/01 01:33:48;;;;;;;0.77;0.30;;;;;;;;;;4163948;28;20060;-48
2023/02/01 01:35:49;;;;;;;0.82;0.40;;;;;;;;;;4163510;28;20097;-47
2023/02/01 01:37:50;;;;;;;1.13;0.47;;;;;;;;;;4156731;28;20449;-49
2023/02/01 01:39:52;;;;;;;0.70;0.30;;;;;;;;;;4163326;28;20053;-46
2023/02/01 01:41:53;;;;;;;0.40;0.30;;;;;;;;;;4138935;28;20053;-45
2023/02/01 01:43:59;;;;;;;1.17;0.50;;;;;;;;;;4146187;28;20108;-48
2023/02/01 01:46:01;;;;;;;0.63;0.40;;;;;;;;;;4145788;28;20505;-49
2023/02/01 01:48:11;;;;;;;1.02;0.40;;;;;;;;;;4163513;28;20471;-45
2023/02/01 01:50:16;;;;;;;0.40;0.28;;;;;;;;;;4129728;28;20058;-45
2023/02/01 01:52:18;;;;;;;0.93;0.43;;;;;;;;;;4145866;28;20501;-43
2023/02/01 01:54:30;;;;;;;0.43;0.22;;;;;;;;;;4162913;28;20504;-46
2023/02/01 01:56:32;;;;;;;0.43;0.40;;;;;;;;;;4143440;28;20100;-45
2023/02/01 01:58:34;;;;;;;3.22;0.50;;;;;;;;;;4145921;28;20080;-46
2023/02/01 02:00:35;;;;;;;0.93;0.40;;;;;;;;;;4163088;28;20401;-44
2023/02/01 02:02:39;;;;;;;1.50;0.50;;;;;;;;;;4145966;28;20517;-45
2023/02/01 02:04:40;;;;;;;1.63;0.30;;;;;;;;;;4145711;28;20057;-44
2023/02/01 02:06:51;;;;;;;1.55;0.47;;;;;;;;;;4163539;28;20491;-47
2023/02/01 02:08:53;;;;;;;0.77;0.40;;;;;;;;;;4145898;28;20057;-45
2023/02/01 02:11:00;;;;;;;1.23;0.50;;;;;;;;;;4145558;28;20100;-46
2023/02/01 02:13:02;;;;;;;0.82;0.43;;;;;;;;;;4145308;28;20084;-45
2023/02/01 02:15:04;;;;;;;0.55;0.25;;;;;;;;;;4145845;28;20116;-46
2023/02/01 02:17:19;;;;;;;0.30;0.30;;;;;;;;;;4145922;28;20054;-47
2023/02/01 02:19:20;;;;;;;0.60;0.40;;;;;;;;;;4163329;28;20057;-45
2023/02/01 02:21:39;;;;;;;0.77;0.40;;;;;;;;;;4163264;28;20138;-44
2023/02/01 02:23:50;;;;;;;0.88;0.50;;;;;;;;;;4138535;28;20054;-44
2023/02/01 02:26:13;;;;;;;0.60;0.30;;;;;;;;;;4162555;28;20278;-44
2023/02/01 02:28:30;;;;;;;0.73;0.40;;;;;;;;;;4163065;28;20540;-45
2023/02/01 02:31:00;;;;;;;0.80;0.38;;;;;;;;;;4123346;28;20065;-46
2023/02/01 02:33:22;;;;;;;1.27;0.43;;;;;;;;;;4145513;28;20062;-46
2023/02/01 02:35:32;;;;;;;0.50;0.30;;;;;;;;;;4138817;28;20882;-45
2023/02/01 02:37:57;;;;;;;0.77;0.32;;;;;;;;;;4129213;28;20522;-46
2023/02/01 02:40:21;;;;;;;1.63;0.50;;;;;;;;;;4129199;28;20058;-44
2023/02/01 02:47:41;;;;;;;0.65;0.20;;;;;;;;;;4129034;28;20046;-47
2023/02/01 02:54:46;;;;;;;1.42;0.47;;;;;;;;;;4142278;28;20111;-42
2023/02/01 03:04:09;;;;;;;1.15;0.30;;;;;;;;;;4130843;28;20054;-44
2023/02/01 03:06:15;;;;;;;1.85;0.40;;;;;;;;;;4144611;28;20062;-45
2023/02/01 03:08:25;;;;;;;1.10;0.35;;;;;;;;;;4145310;28;20497;-45
2023/02/01 03:10:41;;;;;;;0.68;0.40;;;;;;;;;;4144791;28;20112;-44
2023/02/01 03:12:56;;;;;;;0.30;0.28;;;;;;;;;;4144889;28;20504;-44
2023/02/01 03:15:06;;;;;;;0.75;0.40;;;;;;;;;;4155971;28;20058;-46
2023/02/01 03:17:14;;;;;;;0.77;0.40;;;;;;;;;;4144902;28;20100;-47
2023/02/01 03:19:24;;;;;;;0.77;0.40;;;;;;;;;;4144960;28;20587;-46
2023/02/01 03:21:32;;;;;;;0.80;0.45;;;;;;;;;;4138887;28;20088;-45
2023/02/01 03:23:35;;;;;;;0.55;0.30;;;;;;;;;;4145254;28;20061;-48
2023/02/01 03:25:36;;;;;;;0.47;0.30;;;;;;;;;;4149333;28;20520;-46
2023/02/01 03:28:01;;;;;;;1.17;0.40;;;;;;;;;;4128796;28;20050;-47
2023/02/01 03:30:10;;;;;;;0.70;0.40;;;;;;;;;;4145156;28;20054;-42
2023/02/01 03:32:11;;;;;;;0.93;0.43;;;;;;;;;;4145260;28;20061;-43
2023/02/01 03:34:13;;;;;;;1.33;0.60;;;;;;;;;;4145046;28;20100;-44
2023/02/01 03:36:31;;;;;;;1.33;0.50;;;;;;;;;;4129021;28;20069;-47
2023/02/01 03:38:36;;;;;;;0.45;0.32;;;;;;;;;;4128672;28;20054;-44
2023/02/01 03:40:39;;;;;;;1.08;0.43;;;;;;;;;;4144747;28;20070;-48
2023/02/01 03:42:46;;;;;;;0.55;0.55;;;;;;;;;;4122051;28;20054;-44
2023/02/01 03:44:58;;;;;;;0.50;0.38;;;;;;;;;;4128997;28;20054;-45
2023/02/01 03:47:03;;;;;;;0.90;0.28;;;;;;;;;;4145061;28;20054;-45
2023/02/01 03:49:08;;;;;;;1.60;0.45;;;;;;;;;;4128718;28;20058;-46
2023/02/01 03:51:11;;;;;;;2.15;0.30;;;;;;;;;;4128758;28;20054;-45
2023/02/01 03:53:20;;;;;;;0.50;0.30;;;;;;;;;;4148612;28;20056;-45
2023/02/01 03:55:22;;;;;;;0.55;0.30;;;;;;;;;;4129986;28;20058;-45
2023/02/01 03:57:29;;;;;;;0.90;0.30;;;;;;;;;;4131499;28;20046;-44
2023/02/01 03:59:30;;;;;;;0.82;0.30;;;;;;;;;;4115533;28;20445;-46
2023/02/01 04:01:32;;;;;;;1.00;0.55;;;;;;;;;;4147901;28;20062;-46
2023/02/01 04:03:33;;;;;;;0.93;0.30;;;;;;;;;;4131644;28;20097;-44
2023/02/01 04:05:34;;;;;;;2.30;0.50;;;;;;;;;;4131180;28;20058;-48
2023/02/01 04:07:41;;;;;;;1.50;0.30;;;;;;;;;;4148005;28;20084;-46
2023/02/01 04:09:43;;;;;;;0.32;0.30;;;;;;;;;;4164584;28;20056;-46
2023/02/01 04:11:45;;;;;;;1.83;0.50;;;;;;;;;;4164553;28;20062;-46
2023/02/01 04:13:46;;;;;;;0.85;0.40;;;;;;;;;;4164710;28;20103;-45
2023/02/01 04:15:49;;;;;;;1.65;0.40;;;;;;;;;;4147455;28;20460;-46
2023/02/01 04:17:51;;;;;;;1.50;0.40;;;;;;;;;;4147554;28;20050;-44
2023/02/01 04:19:52;;;;;;;1.73;0.40;;;;;;;;;;4164849;28;20531;-47
2023/02/01 04:21:53;;;;;;;0.50;0.40;;;;;;;;;;4158214;28;20057;-46
2023/02/01 04:23:55;;;;;;;0.45;0.30;;;;;;;;;;4164893;28;20057;-43
2023/02/01 04:26:01;;;;;;;0.57;0.30;;;;;;;;;;4146517;28;20053;-47
2023/02/01 04:28:02;;;;;;;0.85;0.40;;;;;;;;;;4147305;28;20084;-44
2023/02/01 04:30:04;;;;;;;1.35;0.45;;;;;;;;;;4164617;28;20050;-47
2023/02/01 04:32:05;;;;;;;0.85;0.30;;;;;;;;;;4164941;28;20111;-45
2023/02/01 04:34:07;;;;;;;3.83;0.50;;;;;;;;;;4146952;28;20440;-47
2023/02/01 04:36:08;;;;;;;1.38;0.60;;;;;;;;;;4164851;28;20103;-44
2023/02/01 04:38:10;;;;;;;0.35;0.22;;;;;;;;;;4147124;28;20493;-48
2023/02/01 04:40:12;;;;;;;0.80;0.40;;;;;;;;;;4157339;28;20053;-44
2023/02/01 04:42:13;;;;;;;0.38;0.30;;;;;;;;;;4164752;28;20160;-45
2023/02/01 04:44:17;;;;;;;0.25;0.25;;;;;;;;;;4146783;28;20088;-47
2023/02/01 04:46:18;;;;;;;1.38;0.63;;;;;;;;;;4164601;28;20107;-47
2023/02/01 04:48:20;;;;;;;1.23;0.40;;;;;;;;;;4164453;28;20115;-46
2023/02/01 04:50:23;;;;;;;1.52;0.40;;;;;;;;;;4146836;28;20062;-46
2023/02/01 04:52:24;;;;;;;1.30;0.68;;;;;;;;;;4146693;28;20057;-46
2023/02/01 04:54:25;;;;;;;0.60;0.38;;;;;;;;;;4164003;28;20053;-47
2023/02/01 04:56:27;;;;;;;0.65;0.30;;;;;;;;;;4164314;28;20566;-47
2023/02/01 04:58:28;;;;;;;1.73;0.73;;;;;;;;;;4147062;28;20054;-45
2023/02/01 05:00:30;;;;;;;0.70;0.38;;;;;;;;;;4146537;28;20124;-46
2023/02/01 05:02:32;;;;;;;0.95;0.40;;;;;;;;;;4164497;28;20552;-47
2023/02/01 05:04:33;;;;;;;0.80;0.40;;;;;;;;;;4146668;28;20058;-45
2023/02/01 05:06:35;;;;;;;0.93;0.50;;;;;;;;;;4163980;28;20057;-49
2023/02/01 05:08:36;;;;;;;1.20;0.57;;;;;;;;;;4164007;28;20107;-46
2023/02/01 05:10:37;;;;;;;1.17;0.50;;;;;;;;;;4163868;28;20054;-47
2023/02/01 05:14:59;;;;;;;0.90;0.50;;;;;;;;;;4159780;28;20054;-46
2023/02/01 05:17:00;;;;;;;1.40;0.60;;;;;;;;;;4146155;28;20512;-48
2023/02/01 05:19:02;;;;;;;1.13;0.50;;;;;;;;;;4164111;28;20060;-45
2023/02/01 05:21:03;;;;;;;0.73;0.40;;;;;;;;;;4114166;28;20513;-45
2023/02/01 05:23:05;;;;;;;0.30;0.22;;;;;;;;;;4164025;28;20457;-46
2023/02/01 05:25:07;;;;;;;1.08;0.50;;;;;;;;;;4166896;28;20059;-47
2023/02/01 05:27:08;;;;;;;0.60;0.40;;;;;;;;;;4163912;28;20088;-46
2023/02/01 05:29:10;;;;;;;0.80;0.50;;;;;;;;;;4146046;28;20069;-49
2023/02/01 05:31:12;;;;;;;1.52;0.50;;;;;;;;;;4163872;28;20068;-48
2023/02/01 05:33:13;;;;;;;0.50;0.32;;;;;;;;;;4146410;28;20050;-42
2023/02/01 05:35:14;;;;;;;0.55;0.30;;;;;;;;;;4163891;28;20104;-47
2023/02/01 05:37:16;;;;;;;0.88;0.50;;;;;;;;;;4163697;28;20060;-47
2023/02/01 05:39:17;;;;;;;0.45;0.20;;;;;;;;;;4145379;28;20058;-46
2023/02/01 05:41:18;;;;;;;0.40;0.30;;;;;;;;;;4163658;28;20049;-46
2023/02/01 05:43:20;;;;;;;1.17;0.30;;;;;;;;;;4163566;28;20409;-44
2023/02/01 05:45:21;;;;;;;1.02;0.40;;;;;;;;;;4145928;28;20116;-45
2023/02/01 05:47:23;;;;;;;0.95;0.50;;;;;;;;;;4163471;28;20550;-48
2023/02/01 05:49:24;;;;;;;2.38;0.70;;;;;;;;;;4163828;28;20061;-45
2023/02/01 05:51:25;;;;;;;1.30;0.60;;;;;;;;;;4150553;28;20064;-46
2023/02/01 05:53:26;;;;;;;1.48;0.60;;;;;;;;;;4163515;28;20412;-45
2023/02/01 05:55:28;;;;;;;1.02;0.40;;;;;;;;;;4145368;28;20452;-46
2023/02/01 05:57:29;;;;;;;0.70;0.50;;;;;;;;;;4163391;28;20050;-45
2023/02/01 05:59:31;;;;;;;1.42;0.80;;;;;;;;;;4163236;28;20064;-45
2023/02/01 06:01:33;;;;;;;7.15;0.70;;;;;;;;;;4142718;28;20409;-46
2023/02/01 06:03:34;;;;;;;1.40;0.40;;;;;;;;;;4143899;28;20481;-45
2023/02/01 06:05:36;;;;;;;1.20;0.70;;;;;;;;;;4161119;28;20119;-47
2023/02/01 06:07:38;;;;;;;0.90;0.60;;;;;;;;;;4161314;28;20560;-47
2023/02/01 06:09:39;;;;;;;1.73;0.68;;;;;;;;;;4161005;28;20111;-46
2023/02/01 06:11:41;;;;;;;1.08;0.50;;;;;;;;;;4143620;28;20057;-44
2023/02/01 06:13:42;;;;;;;0.98;0.68;;;;;;;;;;4160736;28;20061;-45
2023/02/01 06:15:44;;;;;;;2.42;0.60;;;;;;;;;;4161251;28;20412;-45
2023/02/01 06:17:46;;;;;;;1.45;0.60;;;;;;;;;;4142748;28;20056;-45
2023/02/01 06:19:48;;;;;;;1.23;0.70;;;;;;;;;;4120841;28;20108;-46
2023/02/01 06:21:49;;;;;;;1.85;0.43;;;;;;;;;;4161134;28;20053;-46
2023/02/01 06:23:51;;;;;;;1.42;0.70;;;;;;;;;;4161044;28;20460;-46
2023/02/01 06:26:02;;;;;;;2.63;0.80;;;;;;;;;;4160017;28;20396;-46
2023/02/01 06:28:05;;;;;;;2.45;0.47;;;;;;;;;;4143585;28;20583;-43
2023/02/01 06:30:07;;;;;;;1.50;0.70;;;;;;;;;;4160842;28;20053;-47
2023/02/01 06:32:09;;;;;;;4.55;0.70;;;;;;;;;;4127371;28;20521;-47
2023/02/01 06:34:11;;;;;;;1.60;0.63;;;;;;;;;;4143287;28;20066;-45
2023/02/01 06:36:12;;;;;;;1.20;0.85;;;;;;;;;;4160737;28;20057;-47
2023/02/01 06:38:14;;;;;;;1.25;0.70;;;;;;;;;;4160662;28;20103;-46
2023/02/01 06:40:15;;;;;;;3.95;0.70;;;;;;;;;;4160428;28;20737;-44
2023/02/01 06:42:17;;;;;;;2.67;0.88;;;;;;;;;;4143517;28;20062;-47
2023/02/01 06:44:18;;;;;;;1.33;0.88;;;;;;;;;;4160907;28;20060;-45
2023/02/01 06:46:19;;;;;;;1.35;0.50;;;;;;;;;;4154364;28;20053;-45
2023/02/01 06:48:21;;;;;;;1.30;0.75;;;;;;;;;;4160563;28;20099;-49
2023/02/01 06:50:22;;;;;;;2.20;0.65;;;;;;;;;;4160479;28;20049;-45
2023/02/01 06:52:24;;;;;;;1.63;0.65;;;;;;;;;;4155781;28;20057;-44
2023/02/01 06:54:26;;;;;;;3.03;1.02;;;;;;;;;;4126259;28;20054;-48
2023/02/01 06:56:28;;;;;;;1.80;0.93;;;;;;;;;;4142764;28;20054;-47
2023/02/01 06:58:30;;;;;;;1.88;1.00;;;;;;;;;;4158244;28;20521;-46
2023/02/01 07:00:32;;;;;;;1.40;1.02;;;;;;;;;;4154970;28;20058;-45
2023/02/01 07:02:33;;;;;;;1.45;0.90;;;;;;;;;;4141499;28;20088;-44
2023/02/01 07:04:34;;;;;;;3.05;0.95;;;;;;;;;;4137868;28;20093;-44
2023/02/01 07:06:35;;;;;;;2.35;1.00;;;;;;;;;;4147392;28;20084;-45
2023/02/01 07:08:38;;;;;;;3.13;1.02;;;;;;;;;;4155782;28;20053;-45
2023/02/01 07:10:39;;;;;;;4.80;1.13;;;;;;;;;;4146252;28;20073;-47
2023/02/01 07:12:41;;;;;;;1.70;1.02;;;;;;;;;;4144603;28;20061;-45
2023/02/01 07:14:42;;;;;;;1.42;0.82;;;;;;;;;;4153908;28;20471;-46
2023/02/01 07:16:43;;;;;;;1.23;0.70;;;;;;;;;;4151427;28;20108;-43
2023/02/01 07:18:45;;;;;;;2.13;0.77;;;;;;;;;;4151279;28;20525;-47
2023/02/01 07:20:50;;;;;;;3.38;0.93;;;;;;;;;;4151605;28;22615;-43
2023/02/01 07:22:56;;;;;;;1.55;0.80;;;;;;;;;;4121893;28;20600;-44
2023/02/01 07:24:57;;;;;;;2.25;1.13;;;;;;;;;;4153214;28;20049;-45
2023/02/01 07:26:59;;;;;;;4.88;0.95;;;;;;;;;;4156918;28;20053;-48
2023/02/01 07:29:00;;;;;;;3.45;0.65;;;;;;;;;;4139643;28;20104;-43
2023/02/01 07:31:15;;;;;;;2.50;1.27;;;;;;;;;;4153467;28;20063;-43
2023/02/01 07:33:21;;;;;;;1.95;0.90;;;;;;;;;;4138502;28;20053;-45
2023/02/01 07:35:22;;;;;;;3.75;1.10;;;;;;;;;;4143436;28;20057;-46
2023/02/01 07:37:24;;;;;;;2.22;0.80;;;;;;;;;;4106498;28;20054;-45
2023/02/01 07:39:28;;;;;;;1.92;0.70;;;;;;;;;;4145028;28;20069;-44
2023/02/01 07:41:29;;;;;;;3.05;0.77;;;;;;;;;;4148262;28;20062;-45
2023/02/01 07:43:31;;;;;;;3.20;1.00;;;;;;;;;;4145876;28;20058;-44
2023/02/01 07:45:33;;;;;;;1.00;0.55;;;;;;;;;;4141082;28;20053;-43
2023/02/01 07:47:34;;;;;;;2.70;0.77;;;;;;;;;;4150061;28;20049;-47
2023/02/01 07:49:35;;;;;;;1.70;0.70;;;;;;;;;;4131957;28;20080;-45
2023/02/01 07:51:37;;;;;;;1.70;0.70;;;;;;;;;;4137407;28;20053;-45
2023/02/01 07:53:39;;;;;;;2.83;0.80;;;;;;;;;;4142744;28;20057;-46
2023/02/01 07:55:40;;;;;;;5.57;1.27;;;;;;;;;;4142519;28;20054;-46
2023/02/01 07:57:42;;;;;;;3.20;0.88;;;;;;;;;;4144700;28;20799;-43
2023/02/01 08:02:13;;;;;;;5.18;1.00;;;;;;;;;;4138784;28;20053;-43
2023/02/01 08:04:15;;;;;;;0.73;0.60;;;;;;;;;;4133104;28;20061;-45
2023/02/01 08:06:17;;;;;;;1.30;0.73;;;;;;;;;;4138196;28;20072;-43
2023/02/01 08:08:18;;;;;;;2.13;0.85;;;;;;;;;;4148350;28;20127;-44
2023/02/01 08:10:19;;;;;;;1.35;0.82;;;;;;;;;;4134572;28;20107;-45
2023/02/01 08:12:20;;;;;;;0.90;0.68;;;;;;;;;;4135335;28;20523;-47
2023/02/01 08:14:22;;;;;;;1.60;0.80;;;;;;;;;;4143040;28;20756;-46
2023/02/01 08:16:24;;;;;;;4.85;0.70;;;;;;;;;;4128712;28;20050;-46
2023/02/01 08:18:25;;;;;;;2.25;0.70;;;;;;;;;;4139267;28;20057;-43
2023/02/01 08:20:27;;;;;;;1.08;0.65;;;;;;;;;;4124754;28;20443;-45
2023/02/01 08:22:32;;;;;;;1.75;0.60;;;;;;;;;;4124239;28;20702;-42
2023/02/01 08:24:33;;;;;;;8.13;0.93;;;;;;;;;;4124370;28;20113;-42
2023/02/01 08:26:35;;;;;;;1.90;0.80;;;;;;;;;;4138842;28;20519;-45
2023/02/01 08:28:38;;;;;;;2.10;0.50;;;;;;;;;;4138776;28;20057;-47
2023/02/01 08:30:41;;;;;;;2.75;0.65;;;;;;;;;;4124878;28;20060;-46
2023/02/01 08:32:43;;;;;;;1.42;0.55;;;;;;;;;;4140233;28;20131;-44
2023/02/01 08:34:44;;;;;;;3.75;1.00;;;;;;;;;;4144813;28;20069;-45
2023/02/01 08:36:46;;;;;;;2.28;0.85;;;;;;;;;;4145216;28;20130;-46
2023/02/01 08:38:48;;;;;;;2.63;0.68;;;;;;;;;;4144014;28;20057;-45
2023/02/01 08:40:49;;;;;;;2.83;0.45;;;;;;;;;;4138675;28;20064;-51
2023/02/01 08:42:50;;;;;;;2.58;0.50;;;;;;;;;;4113670;28;20747;-46
2023/02/01 08:44:52;;;;;;;2.85;0.70;;;;;;;;;;4120261;28;20128;-48
2023/02/01 08:46:54;;;;;;;0.80;0.50;;;;;;;;;;4138592;28;20224;-43
2023/02/01 08:48:55;;;;;;;2.38;0.80;;;;;;;;;;4132998;28;20530;-42
2023/02/01 08:50:56;;;;;;;4.55;0.80;;;;;;;;;;4131734;28;20124;-42
2023/02/01 08:52:57;;;;;;;2.67;1.10;;;;;;;;;;4140059;28;20471;-41
2023/02/01 08:54:59;;;;;;;1.05;0.70;;;;;;;;;;4136431;28;20505;-43
2023/02/01 08:57:00;;;;;;;1.38;0.68;;;;;;;;;;4133970;28;20084;-45
2023/02/01 08:59:01;;;;;;;1.30;0.60;;;;;;;;;;4128946;28;20428;-46
2023/02/01 09:01:07;;;;;;;1.05;0.50;;;;;;;;;;4113376;28;20057;-43
2023/02/01 09:03:10;;;;;;;0.95;0.43;;;;;;;;;;4123676;28;20798;-43
2023/02/01 09:05:11;;;;;;;1.92;0.80;;;;;;;;;;4106968;28;20617;-42
2023/02/01 09:07:14;;;;;;;0.93;0.60;;;;;;;;;;4107749;28;20560;-43
2023/02/01 09:09:16;;;;;;;1.25;0.65;;;;;;;;;;4135799;28;20511;-42
2023/02/01 09:11:21;;;;;;;0.55;0.47;;;;;;;;;;4135910;28;20139;-45
2023/02/01 09:13:23;;;;;;;1.45;0.60;;;;;;;;;;4141748;28;20061;-41
2023/02/01 09:15:24;;;;;;;1.25;0.52;;;;;;;;;;4137340;28;20685;-40
2023/02/01 09:17:27;;;;;;;2.15;0.50;;;;;;;;;;4138303;28;20057;-44
2023/02/01 09:19:28;;;;;;;1.92;0.95;;;;;;;;;;4138227;28;20573;-45
2023/02/01 09:21:29;;;;;;;0.80;0.30;;;;;;;;;;4134295;28;20088;-43
2023/02/01 09:23:30;;;;;;;0.88;0.50;;;;;;;;;;4134846;28;20091;-41
2023/02/01 09:25:32;;;;;;;1.33;0.68;;;;;;;;;;4140233;28;20488;-44
2023/02/01 09:27:34;;;;;;;1.85;0.60;;;;;;;;;;4136092;28;20058;-42
2023/02/01 09:29:35;;;;;;;1.63;0.60;;;;;;;;;;4138096;28;20057;-42
2023/02/01 09:31:37;;;;;;;1.80;0.60;;;;;;;;;;4137291;28;20057;-42
2023/02/01 09:33:39;;;;;;;0.77;0.55;;;;;;;;;;4133108;28;22122;-42
2023/02/01 09:35:41;;;;;;;1.42;0.50;;;;;;;;;;4123785;28;20710;-44
2023/02/01 09:37:42;;;;;;;1.05;0.60;;;;;;;;;;4136849;28;20057;-43
2023/02/01 09:39:43;;;;;;;1.25;0.52;;;;;;;;;;4143916;28;20111;-41
2023/02/01 09:42:00;;;;;;;2.60;0.60;;;;;;;;;;4137470;28;20115;-44
2023/02/01 09:44:31;;;;;;;0.82;0.50;;;;;;;;;;4114406;28;20088;-42
2023/02/01 09:46:34;;;;;;;0.82;0.45;;;;;;;;;;4129525;28;20049;-43
2023/02/01 09:48:39;;;;;;;2.88;0.70;;;;;;;;;;4117644;28;20061;-43
2023/02/01 09:50:45;;;;;;;1.23;0.60;;;;;;;;;;4133052;28;20057;-43
2023/02/01 09:52:57;;;;;;;2.85;0.60;;;;;;;;;;4094413;28;20062;-46
2023/02/01 09:55:03;;;;;;;0.70;0.40;;;;;;;;;;4114196;28;20080;-42
2023/02/01 09:57:08;;;;;;;3.60;0.50;;;;;;;;;;4128793;28;20476;-43
2023/02/01 09:59:23;;;;;;;2.25;0.47;;;;;;;;;;4132753;28;20654;-41
2023/02/01 10:01:26;;;;;;;1.00;0.70;;;;;;;;;;4131175;28;20118;-41
2023/02/01 10:03:30;;;;;;;2.97;0.52;;;;;;;;;;4127413;28;20614;-41
2023/02/01 10:05:44;;;;;;;1.92;0.38;;;;;;;;;;4122010;28;20076;-41
2023/02/01 10:08:13;;;;;;;0.63;0.43;;;;;;;;;;4116103;28;20067;-39
2023/02/01 10:10:21;;;;;;;0.90;0.30;;;;;;;;;;4107358;28;20563;-40
2023/02/01 10:12:49;;;;;;;0.88;0.47;;;;;;;;;;4111202;28;20233;-40
2023/02/01 10:14:59;;;;;;;2.35;0.60;;;;;;;;;;4134893;28;20058;-40
2023/02/01 10:17:13;;;;;;;2.65;0.40;;;;;;;;;;4126724;28;20594;-40
2023/02/01 10:19:37;;;;;;;1.10;0.57;;;;;;;;;;4117209;28;20120;-40
2023/02/01 10:21:51;;;;;;;0.52;0.40;;;;;;;;;;4140961;28;20068;-39
2023/02/01 10:24:14;;;;;;;0.50;0.20;;;;;;;;;;4142790;28;20053;-43
2023/02/01 10:26:23;;;;;;;2.67;0.40;;;;;;;;;;4136448;28;20466;-40
2023/02/01 10:28:25;;;;;;;0.30;0.30;;;;;;;;;;4136534;28;20061;-40
2023/02/01 10:30:39;;;;;;;0.30;0.28;;;;;;;;;;4130724;28;20061;-40
2023/02/01 10:32:41;;;;;;;0.40;0.30;;;;;;;;;;4095046;28;20540;-40
2023/02/01 10:34:44;;;;;;;0.57;0.45;;;;;;;;;;4128759;28;20139;-41
2023/02/01 10:36:57;;;;;;;3.40;0.50;;;;;;;;;;4134922;28;20057;-41
2023/02/01 10:38:59;;;;;;;1.83;0.40;;;;;;;;;;4114545;28;20128;-44
2023/02/01 10:41:23;;;;;;;1.08;0.43;;;;;;;;;;4134209;28;20061;-45
2023/02/01 10:43:24;;;;;;;2.80;0.65;;;;;;;;;;4141138;28;20057;-45
2023/02/01 10:45:28;;;;;;;1.33;0.50;;;;;;;;;;4130847;28;21337;-46
2023/02/01 10:47:29;;;;;;;0.77;0.30;;;;;;;;;;4113245;28;20729;-44
2023/02/01 10:49:54;;;;;;;0.73;0.40;;;;;;;;;;4119598;28;20058;-42
2023/02/01 10:52:17;;;;;;;1.58;0.52;;;;;;;;;;4141359;28;20312;-46
2023/02/01 10:54:21;;;;;;;0.30;0.20;;;;;;;;;;4106361;28;20476;-44
2023/02/01 10:56:27;;;;;;;0.52;0.40;;;;;;;;;;4132929;28;20069;-45
2023/02/01 10:58:32;;;;;;;1.67;0.63;;;;;;;;;;4130398;28;20057;-46
2023/02/01 11:00:49;;;;;;;1.60;0.50;;;;;;;;;;4132083;28;20061;-47
2023/02/01 11:02:51;;;;;;;2.65;0.45;;;;;;;;;;4130357;28;20057;-46
2023/02/01 11:04:58;;;;;;;1.45;0.40;;;;;;;;;;4123131;28;20662;-44
2023/02/01 11:07:13;;;;;;;1.17;0.40;;;;;;;;;;4118543;28;20062;-47
2023/02/01 11:09:14;;;;;;;1.45;0.40;;;;;;;;;;4120808;28;21364;-44
2023/02/01 11:11:16;;;;;;;1.02;0.60;;;;;;;;;;4144179;28;20572;-46
2023/02/01 11:13:18;;;;;;;0.73;0.40;;;;;;;;;;4136870;28;20368;-45
2023/02/01 11:15:24;;;;;;;0.75;0.40;;;;;;;;;;4143537;28;20065;-44
2023/02/01 11:17:28;;;;;;;1.45;0.50;;;;;;;;;;4144109;28;20053;-44
2023/02/01 11:19:30;;;;;;;1.02;0.35;;;;;;;;;;4137895;28;20451;-45
2023/02/01 11:21:33;;;;;;;1.33;0.60;;;;;;;;;;4147766;28;20179;-46
2023/02/01 11:23:40;;;;;;;2.97;0.60;;;;;;;;;;4148363;28;20514;-42
2023/02/01 11:25:56;;;;;;;1.25;0.63;;;;;;;;;;4140122;28;21322;-39
2023/02/01 11:27:59;;;;;;;0.77;0.35;;;;;;;;;;4144042;28;20052;-43
2023/02/01 11:30:01;;;;;;;0.93;0.35;;;;;;;;;;4145763;28;20385;-40
2023/02/01 11:32:03;;;;;;;1.05;0.55;;;;;;;;;;4151712;28;20085;-39
2023/02/01 11:34:12;;;;;;;0.90;0.50;;;;;;;;;;4150388;28;20896;-43
2023/02/01 11:36:19;;;;;;;1.05;0.70;;;;;;;;;;4127551;28;20077;-41
2023/02/01 11:38:26;;;;;;;1.50;0.52;;;;;;;;;;4133993;28;20136;-42
2023/02/01 11:40:34;;;;;;;1.92;0.52;;;;;;;;;;4145398;28;20436;-39
2023/02/01 11:42:35;;;;;;;0.55;0.50;;;;;;;;;;4132773;28;20094;-40
2023/02/01 11:44:39;;;;;;;2.58;0.73;;;;;;;;;;4132089;28;20104;-40
2023/02/01 11:46:40;;;;;;;1.50;0.50;;;;;;;;;;4147936;28;20061;-41
2023/02/01 11:48:42;;;;;;;1.33;0.32;;;;;;;;;;4137477;28;20191;-40
2023/02/01 11:50:57;;;;;;;0.80;0.40;;;;;;;;;;4121068;28;20050;-39
2023/02/01 11:53:23;;;;;;;1.13;0.38;;;;;;;;;;4127972;28;20057;-41
2023/02/01 11:55:40;;;;;;;1.75;0.60;;;;;;;;;;4145735;28;20060;-40
2023/02/01 11:58:05;;;;;;;0.40;0.40;;;;;;;;;;4149451;28;20045;-41
2023/02/01 12:00:29;;;;;;;0.98;0.60;;;;;;;;;;4138575;28;20057;-39
2023/02/01 12:02:55;;;;;;;0.90;0.57;;;;;;;;;;4145409;28;20061;-41
2023/02/01 12:05:23;;;;;;;1.50;0.60;;;;;;;;;;4138798;28;20172;-41
2023/02/01 12:07:52;;;;;;;0.88;0.50;;;;;;;;;;4144193;28;20061;-42
2023/02/01 12:10:04;;;;;;;1.77;0.60;;;;;;;;;;4147342;28;20119;-41
2023/02/01 12:12:16;;;;;;;1.05;0.50;;;;;;;;;;4150405;28;20119;-43
2023/02/01 12:14:51;;;;;;;0.98;0.50;;;;;;;;;;4144547;28;20111;-43
2023/02/01 12:17:23;;;;;;;0.88;0.50;;;;;;;;;;4115172;28;20062;-40
2023/02/01 12:19:47;;;;;;;0.95;0.45;;;;;;;;;;4149213;28;19933;-45
2023/02/01 12:22:12;;;;;;;2.67;0.60;;;;;;;;;;4125575;28;20054;-40
2023/02/01 12:24:19;;;;;;;0.50;0.35;;;;;;;;;;4126379;28;20116;-39
2023/02/01 12:26:54;;;;;;;1.15;0.40;;;;;;;;;;4149120;28;20053;-39
2023/02/01 12:29:19;;;;;;;0.52;0.35;;;;;;;;;;4147834;28;20103;-38
2023/02/01 12:32:02;;;;;;;1.30;0.32;;;;;;;;;;4136597;28;20061;-39
2023/02/01 12:34:24;;;;;;;1.30;0.45;;;;;;;;;;4100527;28;20190;-38
2023/02/01 12:36:43;;;;;;;2.10;0.52;;;;;;;;;;4147065;28;20087;-39
2023/02/01 12:39:11;;;;;;;1.55;0.38;;;;;;;;;;4149706;28;20053;-39
2023/02/01 12:41:27;;;;;;;1.58;0.43;;;;;;;;;;4148100;28;20054;-39
2023/02/01 12:43:54;;;;;;;3.67;0.50;;;;;;;;;;4147736;28;20559;-40
2023/02/01 12:45:59;;;;;;;2.13;0.60;;;;;;;;;;4129388;28;20065;-40
2023/02/01 12:48:19;;;;;;;0.60;0.43;;;;;;;;;;4146162;28;20057;-40
2023/02/01 12:50:36;;;;;;;;;;;;;;;;;;4131322;28;20054;-39
2023/02/01 12:52:42;;;;;;;0.63;0.40;;;;;;;;;;4130208;28;19929;-40
2023/02/01 12:54:58;;;;;;;1.17;0.43;;;;;;;;;;4122114;28;20460;-39